Terminal Aerodrome Forecast
Issued by NWS

Home | Current Version | Previous Version | Text Only | Print | Product List | Glossary On
Versions: 1 2 3 4 5 6 7 8 9 10 11 12 13 14 15 16 17 18 19 20 21 22 23 24 25
000
FTUS45 KRIW 032320
TAFPNA
TAF
KPNA 032320Z 0400/0424 21011G20KT P6SM SCT090
     FM040130 22008KT P6SM FEW110 SCT250
     FM041000 VRB06KT P6SM SCT250
     FM041500 17010KT P6SM FEW250
     FM042000 20015G23KT P6SM FEW080
      AMD LTD TO CLD VIS AND WIND=

USA.gov is the U.S. government's official web portal to all federal, state and local government web resources and services.